sensor_id;sensor_type;location;lat;lon;timestamp;pressure;altitude;pressure_sealevel;temperature;humidity
33189;BME280;52601;53.070;10.600;2022-11-20T00:01:46;100884.06;;;1.60;100.00
33189;BME280;52601;53.070;10.600;2022-11-20T00:04:32;100890.09;;;1.62;100.00
33189;BME280;52601;53.070;10.600;2022-11-20T00:07:17;100880.59;;;1.61;100.00
33189;BME280;52601;53.070;10.600;2022-11-20T00:10:03;100879.81;;;1.56;100.00
33189;BME280;52601;53.070;10.600;2022-11-20T00:12:48;100879.72;;;1.67;100.00
33189;BME280;52601;53.070;10.600;2022-11-20T00:15:34;100881.59;;;1.50;100.00
33189;BME280;52601;53.070;10.600;2022-11-20T00:18:19;100866.09;;;1.48;100.00
33189;BME280;52601;53.070;10.600;2022-11-20T00:21:07;100881.56;;;1.53;100.00
33189;BME280;52601;53.070;10.600;2022-11-20T00:23:54;100878.09;;;1.54;100.00
33189;BME280;52601;53.070;10.600;2022-11-20T00:26:40;100889.28;;;1.54;100.00
33189;BME280;52601;53.070;10.600;2022-11-20T00:29:25;100883.25;;;1.55;100.00
33189;BME280;52601;53.070;10.600;2022-11-20T00:32:11;100876.31;;;1.62;100.00
33189;BME280;52601;53.070;10.600;2022-11-20T00:34:56;100880.69;;;1.54;100.00
33189;BME280;52601;53.070;10.600;2022-11-20T00:37:42;100882.50;;;1.44;100.00
33189;BME280;52601;53.070;10.600;2022-11-20T00:40:27;100886.00;;;1.36;100.00
33189;BME280;52601;53.070;10.600;2022-11-20T00:43:13;100870.63;;;1.25;100.00
33189;BME280;52601;53.070;10.600;2022-11-20T00:46:03;100885.94;;;1.45;100.00
33189;BME280;52601;53.070;10.600;2022-11-20T00:48:49;100885.94;;;1.42;100.00
33189;BME280;52601;53.070;10.600;2022-11-20T00:51:35;100881.69;;;1.38;100.00
33189;BME280;52601;53.070;10.600;2022-11-20T00:54:20;100879.94;;;1.40;100.00
33189;BME280;52601;53.070;10.600;2022-11-20T00:57:06;100885.91;;;1.48;100.00
33189;BME280;52601;53.070;10.600;2022-11-20T00:59:51;100874.75;;;1.43;100.00
33189;BME280;52601;53.070;10.600;2022-11-20T01:02:37;100875.50;;;1.55;100.00
33189;BME280;52601;53.070;10.600;2022-11-20T01:05:22;100877.16;;;1.64;100.00
33189;BME280;52601;53.070;10.600;2022-11-20T01:08:08;100867.75;;;1.54;100.00
33189;BME280;52601;53.070;10.600;2022-11-20T01:10:58;100868.56;;;1.62;100.00
33189;BME280;52601;53.070;10.600;2022-11-20T01:13:45;100871.19;;;1.56;100.00
33189;BME280;52601;53.070;10.600;2022-11-20T01:16:34;100865.06;;;1.66;100.00
33189;BME280;52601;53.070;10.600;2022-11-20T01:19:22;100878.84;;;1.66;100.00
33189;BME280;52601;53.070;10.600;2022-11-20T01:22:09;100859.09;;;1.61;100.00
33189;BME280;52601;53.070;10.600;2022-11-20T01:24:54;100861.72;;;1.56;100.00
33189;BME280;52601;53.070;10.600;2022-11-20T01:27:40;100862.59;;;1.57;100.00
33189;BME280;52601;53.070;10.600;2022-11-20T01:30:25;100854.75;;;1.64;100.00
33189;BME280;52601;53.070;10.600;2022-11-20T01:33:11;100850.50;;;1.59;100.00
33189;BME280;52601;53.070;10.600;2022-11-20T01:36:03;100847.16;;;1.48;100.00
33189;BME280;52601;53.070;10.600;2022-11-20T01:38:54;100845.34;;;1.57;100.00
33189;BME280;52601;53.070;10.600;2022-11-20T01:41:40;100847.03;;;1.63;100.00
33189;BME280;52601;53.070;10.600;2022-11-20T01:44:57;100848.91;;;1.44;100.00
33189;BME280;52601;53.070;10.600;2022-11-20T01:47:45;100841.16;;;1.46;100.00
33189;BME280;52601;53.070;10.600;2022-11-20T01:50:31;100831.63;;;1.49;100.00
33189;BME280;52601;53.070;10.600;2022-11-20T01:53:21;100825.66;;;1.44;100.00
33189;BME280;52601;53.070;10.600;2022-11-20T01:56:10;100823.16;;;1.38;100.00
33189;BME280;52601;53.070;10.600;2022-11-20T01:58:59;100822.22;;;1.44;100.00
33189;BME280;52601;53.070;10.600;2022-11-20T02:01:47;100816.25;;;1.40;100.00
33189;BME280;52601;53.070;10.600;2022-11-20T02:04:32;100815.34;;;1.44;100.00
33189;BME280;52601;53.070;10.600;2022-11-20T02:07:18;100818.81;;;1.40;100.00
33189;BME280;52601;53.070;10.600;2022-11-20T02:10:05;100811.13;;;1.31;100.00
33189;BME280;52601;53.070;10.600;2022-11-20T02:12:51;100807.59;;;1.44;100.00
33189;BME280;52601;53.070;10.600;2022-11-20T02:15:55;100811.00;;;1.46;100.00
33189;BME280;52601;53.070;10.600;2022-11-20T02:18:42;100800.66;;;1.51;100.00
33189;BME280;52601;53.070;10.600;2022-11-20T02:22:17;100810.94;;;1.54;100.00
33189;BME280;52601;53.070;10.600;2022-11-20T02:25:02;100808.44;;;1.43;100.00
33189;BME280;52601;53.070;10.600;2022-11-20T02:27:48;100796.38;;;1.45;100.00
33189;BME280;52601;53.070;10.600;2022-11-20T02:30:35;100787.78;;;1.45;100.00
33189;BME280;52601;53.070;10.600;2022-11-20T02:33:20;100794.69;;;1.44;100.00
33189;BME280;52601;53.070;10.600;2022-11-20T02:36:08;100783.72;;;1.18;100.00
33189;BME280;52601;53.070;10.600;2022-11-20T02:38:56;100796.63;;;1.18;100.00
33189;BME280;52601;53.070;10.600;2022-11-20T02:41:42;100789.91;;;1.02;100.00
33189;BME280;52601;53.070;10.600;2022-11-20T02:44:28;100782.25;;;0.90;100.00
33189;BME280;52601;53.070;10.600;2022-11-20T02:47:13;100788.28;;;0.91;100.00
33189;BME280;52601;53.070;10.600;2022-11-20T02:49:59;100792.63;;;0.85;100.00
33189;BME280;52601;53.070;10.600;2022-11-20T02:52:44;100788.38;;;0.81;100.00
33189;BME280;52601;53.070;10.600;2022-11-20T02:55:30;100785.00;;;0.66;100.00
33189;BME280;52601;53.070;10.600;2022-11-20T02:58:15;100791.06;;;0.62;100.00
33189;BME280;52601;53.070;10.600;2022-11-20T03:01:01;100797.06;;;0.64;100.00
33189;BME280;52601;53.070;10.600;2022-11-20T03:03:47;100786.94;;;0.37;100.00
33189;BME280;52601;53.070;10.600;2022-11-20T03:06:34;100795.47;;;0.46;100.00
33189;BME280;52601;53.070;10.600;2022-11-20T03:09:19;100786.09;;;0.30;100.00
33189;BME280;52601;53.070;10.600;2022-11-20T03:12:05;100802.41;;;0.32;100.00
33189;BME280;52601;53.070;10.600;2022-11-20T03:14:51;100791.31;;;0.23;100.00
33189;BME280;52601;53.070;10.600;2022-11-20T03:17:37;100789.53;;;0.35;100.00
33189;BME280;52601;53.070;10.600;2022-11-20T03:20:23;100805.81;;;0.43;100.00
33189;BME280;52601;53.070;10.600;2022-11-20T03:23:09;100786.88;;;0.44;100.00
33189;BME280;52601;53.070;10.600;2022-11-20T03:25:54;100786.97;;;0.31;100.00
33189;BME280;52601;53.070;10.600;2022-11-20T03:28:41;100800.69;;;0.34;100.00
33189;BME280;52601;53.070;10.600;2022-11-20T03:31:33;100786.09;;;0.30;100.00
33189;BME280;52601;53.070;10.600;2022-11-20T03:34:18;100788.66;;;0.35;100.00
33189;BME280;52601;53.070;10.600;2022-11-20T03:37:04;100787.00;;;0.25;100.00
33189;BME280;52601;53.070;10.600;2022-11-20T03:39:49;100791.28;;;0.27;100.00
33189;BME280;52601;53.070;10.600;2022-11-20T03:42:34;100784.38;;;0.35;100.00
33189;BME280;52601;53.070;10.600;2022-11-20T03:45:31;100789.47;;;0.44;100.00
33189;BME280;52601;53.070;10.600;2022-11-20T03:48:17;100783.50;;;0.38;100.00
33189;BME280;52601;53.070;10.600;2022-11-20T03:51:14;100782.59;;;0.43;100.00
33189;BME280;52601;53.070;10.600;2022-11-20T03:54:02;100780.84;;;0.44;100.00
33189;BME280;52601;53.070;10.600;2022-11-20T03:56:48;100776.53;;;0.46;100.00
33189;BME280;52601;53.070;10.600;2022-11-20T03:59:34;100760.34;;;0.24;100.00
33189;BME280;52601;53.070;10.600;2022-11-20T04:02:19;100773.97;;;0.47;100.00
33189;BME280;52601;53.070;10.600;2022-11-20T04:05:05;100780.84;;;0.51;100.00
33189;BME280;52601;53.070;10.600;2022-11-20T04:07:51;100776.47;;;0.61;100.00
33189;BME280;52601;53.070;10.600;2022-11-20T04:10:37;100778.19;;;0.59;100.00
33189;BME280;52601;53.070;10.600;2022-11-20T04:13:22;100769.53;;;0.69;100.00
33189;BME280;52601;53.070;10.600;2022-11-20T04:16:09;100779.94;;;0.57;100.00
33189;BME280;52601;53.070;10.600;2022-11-20T04:18:56;100770.44;;;0.63;100.00
33189;BME280;52601;53.070;10.600;2022-11-20T04:21:43;100765.25;;;0.66;100.00
33189;BME280;52601;53.070;10.600;2022-11-20T04:24:29;100772.97;;;0.68;100.00
33189;BME280;52601;53.070;10.600;2022-11-20T04:27:14;100758.38;;;0.62;100.00
33189;BME280;52601;53.070;10.600;2022-11-20T04:29:59;100747.25;;;0.56;100.00
33189;BME280;52601;53.070;10.600;2022-11-20T04:32:45;100767.88;;;0.56;100.00
33189;BME280;52601;53.070;10.600;2022-11-20T04:35:34;100769.63;;;0.57;100.00
33189;BME280;52601;53.070;10.600;2022-11-20T04:38:19;100771.34;;;0.52;100.00
33189;BME280;52601;53.070;10.600;2022-11-20T04:41:06;100765.38;;;0.48;100.00
33189;BME280;52601;53.070;10.600;2022-11-20T04:43:54;100742.97;;;0.52;100.00
33189;BME280;52601;53.070;10.600;2022-11-20T04:46:44;100762.69;;;0.65;100.00
33189;BME280;52601;53.070;10.600;2022-11-20T04:49:29;100757.53;;;0.62;100.00
33189;BME280;52601;53.070;10.600;2022-11-20T04:52:16;100757.44;;;0.74;100.00
33189;BME280;52601;53.070;10.600;2022-11-20T04:55:02;100746.41;;;0.55;100.00
33189;BME280;52601;53.070;10.600;2022-11-20T04:57:50;100746.34;;;0.67;100.00
33189;BME280;52601;53.070;10.600;2022-11-20T05:00:36;100741.97;;;0.72;100.00
33189;BME280;52601;53.070;10.600;2022-11-20T05:03:22;100748.88;;;0.69;100.00
33189;BME280;52601;53.070;10.600;2022-11-20T05:06:09;100750.53;;;0.76;100.00
33189;BME280;52601;53.070;10.600;2022-11-20T05:08:54;100748.06;;;0.62;100.00
33189;BME280;52601;53.070;10.600;2022-11-20T05:11:40;100743.78;;;0.61;100.00
33189;BME280;52601;53.070;10.600;2022-11-20T05:14:25;100738.56;;;0.66;100.00
33189;BME280;52601;53.070;10.600;2022-11-20T05:17:11;100742.94;;;0.59;100.00
33189;BME280;52601;53.070;10.600;2022-11-20T05:19:57;100741.09;;;0.72;100.00
33189;BME280;52601;53.070;10.600;2022-11-20T05:22:43;100739.44;;;0.66;100.00
33189;BME280;52601;53.070;10.600;2022-11-20T05:25:29;100733.47;;;0.63;100.00
33189;BME280;52601;53.070;10.600;2022-11-20T05:28:15;100722.28;;;0.61;100.00
33189;BME280;52601;53.070;10.600;2022-11-20T05:31:08;100721.38;;;0.68;100.00
33189;BME280;52601;53.070;10.600;2022-11-20T05:33:55;100724.78;;;0.73;100.00
33189;BME280;52601;53.070;10.600;2022-11-20T05:36:42;100722.22;;;0.71;100.00
33189;BME280;52601;53.070;10.600;2022-11-20T05:39:27;100724.84;;;0.64;100.00
33189;BME280;52601;53.070;10.600;2022-11-20T05:42:12;100731.75;;;0.63;100.00
33189;BME280;52601;53.070;10.600;2022-11-20T05:45:16;100717.94;;;0.66;100.00
33189;BME280;52601;53.070;10.600;2022-11-20T05:48:01;100707.59;;;0.70;100.00
33189;BME280;52601;53.070;10.600;2022-11-20T05:50:47;100697.41;;;0.54;100.00
33189;BME280;52601;53.070;10.600;2022-11-20T05:53:34;100711.00;;;0.74;100.00
33189;BME280;52601;53.070;10.600;2022-11-20T05:56:21;100712.75;;;0.73;100.00
33189;BME280;52601;53.070;10.600;2022-11-20T05:59:07;100711.84;;;0.77;100.00
33189;BME280;52601;53.070;10.600;2022-11-20T06:01:52;100714.44;;;0.74;100.00
33189;BME280;52601;53.070;10.600;2022-11-20T06:04:38;100712.69;;;0.78;100.00
33189;BME280;52601;53.070;10.600;2022-11-20T06:07:24;100716.03;;;0.91;100.00
33189;BME280;52601;53.070;10.600;2022-11-20T06:10:09;100710.13;;;0.79;100.00
33189;BME280;52601;53.070;10.600;2022-11-20T06:12:57;100699.78;;;0.79;100.00
33189;BME280;52601;53.070;10.600;2022-11-20T06:15:48;100712.53;;;0.95;100.00
33189;BME280;52601;53.070;10.600;2022-11-20T06:18:34;100710.84;;;0.91;100.00
33189;BME280;52601;53.070;10.600;2022-11-20T06:21:23;100716.06;;;0.84;100.00
33189;BME280;52601;53.070;10.600;2022-11-20T06:24:09;100716.81;;;0.96;100.00
33189;BME280;52601;53.070;10.600;2022-11-20T06:26:55;100712.53;;;0.95;100.00
33189;BME280;52601;53.070;10.600;2022-11-20T06:29:41;100707.47;;;0.87;100.00
33189;BME280;52601;53.070;10.600;2022-11-20T06:32:26;100709.97;;;0.92;100.00
33189;BME280;52601;53.070;10.600;2022-11-20T06:35:12;100709.97;;;0.93;100.00
33189;BME280;52601;53.070;10.600;2022-11-20T06:37:57;100703.91;;;0.97;100.00
33189;BME280;52601;53.070;10.600;2022-11-20T06:40:43;100701.41;;;0.91;100.00
33189;BME280;52601;53.070;10.600;2022-11-20T06:43:29;100705.56;;;1.04;100.00
33189;BME280;52601;53.070;10.600;2022-11-20T06:46:16;100698.00;;;0.84;100.00
33189;BME280;52601;53.070;10.600;2022-11-20T06:49:04;100700.50;;;0.92;100.00
33189;BME280;52601;53.070;10.600;2022-11-20T06:51:50;100696.28;;;0.85;100.00
33189;BME280;52601;53.070;10.600;2022-11-20T06:54:35;100682.56;;;0.81;100.00
33189;BME280;52601;53.070;10.600;2022-11-20T06:57:21;100700.53;;;0.87;100.00
33189;BME280;52601;53.070;10.600;2022-11-20T07:00:07;100697.91;;;0.95;100.00
33189;BME280;52601;53.070;10.600;2022-11-20T07:02:52;100687.59;;;0.94;100.00
33189;BME280;52601;53.070;10.600;2022-11-20T07:05:38;100690.28;;;0.84;100.00
33189;BME280;52601;53.070;10.600;2022-11-20T07:08:24;100697.00;;;0.98;100.00
33189;BME280;52601;53.070;10.600;2022-11-20T07:11:12;100691.06;;;0.91;100.00
33189;BME280;52601;53.070;10.600;2022-11-20T07:13:58;100703.09;;;0.92;100.00
33189;BME280;52601;53.070;10.600;2022-11-20T07:16:44;100692.91;;;0.81;100.00
33189;BME280;52601;53.070;10.600;2022-11-20T07:19:29;100704.75;;;1.01;100.00
33189;BME280;52601;53.070;10.600;2022-11-20T07:22:15;100679.03;;;0.90;100.00
33189;BME280;52601;53.070;10.600;2022-11-20T07:25:01;100685.81;;;1.00;100.00
33189;BME280;52601;53.070;10.600;2022-11-20T07:27:47;100694.22;;;1.20;100.00
33189;BME280;52601;53.070;10.600;2022-11-20T07:30:33;100692.34;;;1.31;100.00
33189;BME280;52601;53.070;10.600;2022-11-20T07:33:18;100678.72;;;1.20;100.00
33189;BME280;52601;53.070;10.600;2022-11-20T07:36:04;100685.44;;;1.36;100.00
33189;BME280;52601;53.070;10.600;2022-11-20T07:38:50;100694.84;;;1.40;100.00
33189;BME280;52601;53.070;10.600;2022-11-20T07:41:35;100680.13;;;1.45;100.00
33189;BME280;52601;53.070;10.600;2022-11-20T07:44:21;100672.44;;;1.42;100.00
33189;BME280;52601;53.070;10.600;2022-11-20T07:47:06;100675.03;;;1.39;100.00
33189;BME280;52601;53.070;10.600;2022-11-20T07:49:52;100681.75;;;1.57;100.00
33189;BME280;52601;53.070;10.600;2022-11-20T07:52:37;100684.09;;;1.73;100.00
33189;BME280;52601;53.070;10.600;2022-11-20T07:55:23;100688.13;;;1.94;100.00
33189;BME280;52601;53.070;10.600;2022-11-20T07:58:08;100685.63;;;1.88;100.00
33189;BME280;52601;53.070;10.600;2022-11-20T08:00:53;100684.56;;;2.03;100.00
33189;BME280;52601;53.070;10.600;2022-11-20T08:03:39;100677.91;;;1.87;100.00
33189;BME280;52601;53.070;10.600;2022-11-20T08:06:25;100685.50;;;1.99;100.00
33189;BME280;52601;53.070;10.600;2022-11-20T08:09:10;100682.78;;;2.06;100.00
33189;BME280;52601;53.070;10.600;2022-11-20T08:11:55;100679.75;;;2.35;100.00
33189;BME280;52601;53.070;10.600;2022-11-20T08:15:00;100682.19;;;2.45;100.00
33189;BME280;52601;53.070;10.600;2022-11-20T08:17:45;100686.34;;;2.55;100.00
33189;BME280;52601;53.070;10.600;2022-11-20T08:20:51;100666.16;;;2.76;100.00
33189;BME280;52601;53.070;10.600;2022-11-20T08:23:36;100677.16;;;2.88;100.00
33189;BME280;52601;53.070;10.600;2022-11-20T08:26:22;100679.47;;;3.03;100.00
33189;BME280;52601;53.070;10.600;2022-11-20T08:29:08;100682.84;;;3.07;100.00
33189;BME280;52601;53.070;10.600;2022-11-20T08:31:53;100675.59;;;2.80;100.00
33189;BME280;52601;53.070;10.600;2022-11-20T08:34:39;100680.69;;;2.84;100.00
33189;BME280;52601;53.070;10.600;2022-11-20T08:37:25;100682.03;;;2.56;100.00
33189;BME280;52601;53.070;10.600;2022-11-20T08:40:11;100680.09;;;2.14;100.00
33189;BME280;52601;53.070;10.600;2022-11-20T08:43:03;100683.13;;;2.41;100.00
33189;BME280;52601;53.070;10.600;2022-11-20T08:45:49;100672.84;;;2.37;100.00
33189;BME280;52601;53.070;10.600;2022-11-20T08:48:35;100680.91;;;2.72;100.00
33189;BME280;52601;53.070;10.600;2022-11-20T08:51:20;100674.66;;;2.84;100.00
33189;BME280;52601;53.070;10.600;2022-11-20T08:54:06;100683.69;;;2.60;100.00
33189;BME280;52601;53.070;10.600;2022-11-20T08:56:51;100689.69;;;2.60;100.00
33189;BME280;52601;53.070;10.600;2022-11-20T08:59:37;100674.75;;;2.78;100.00
33189;BME280;52601;53.070;10.600;2022-11-20T09:02:43;100682.13;;;3.00;100.00
33189;BME280;52601;53.070;10.600;2022-11-20T09:05:28;100686.31;;;3.07;100.00
33189;BME280;52601;53.070;10.600;2022-11-20T09:08:14;100684.31;;;3.21;100.00
33189;BME280;52601;53.070;10.600;2022-11-20T09:10:59;100683.41;;;3.22;100.00
33189;BME280;52601;53.070;10.600;2022-11-20T09:13:45;100684.69;;;3.02;100.00
33189;BME280;52601;53.070;10.600;2022-11-20T09:16:30;100685.19;;;3.20;100.00
33189;BME280;52601;53.070;10.600;2022-11-20T09:19:16;100682.06;;;3.47;100.00
33189;BME280;52601;53.070;10.600;2022-11-20T09:22:22;100674.38;;;3.84;100.00
33189;BME280;52601;53.070;10.600;2022-11-20T09:25:07;100673.47;;;4.60;97.77
33189;BME280;52601;53.070;10.600;2022-11-20T09:27:57;100666.78;;;6.62;90.44
33189;BME280;52601;53.070;10.600;2022-11-20T09:30:43;100668.41;;;6.66;81.70
33189;BME280;52601;53.070;10.600;2022-11-20T09:33:28;100669.03;;;6.72;81.22
33189;BME280;52601;53.070;10.600;2022-11-20T09:36:14;100661.44;;;6.40;81.20
33189;BME280;52601;53.070;10.600;2022-11-20T09:39:01;100666.09;;;7.08;80.43
33189;BME280;52601;53.070;10.600;2022-11-20T09:42:03;100663.09;;;7.89;77.41
33189;BME280;52601;53.070;10.600;2022-11-20T09:45:18;100670.75;;;8.80;73.44
33189;BME280;52601;53.070;10.600;2022-11-20T09:54:22;100664.78;;;9.94;60.55
33189;BME280;52601;53.070;10.600;2022-11-20T09:57:14;100664.41;;;8.86;67.06
33189;BME280;52601;53.070;10.600;2022-11-20T10:00:05;100651.34;;;10.20;65.13
33189;BME280;52601;53.070;10.600;2022-11-20T10:03:00;100658.47;;;10.71;61.90
33189;BME280;52601;53.070;10.600;2022-11-20T10:05:54;100645.91;;;11.27;62.55
33189;BME280;52601;53.070;10.600;2022-11-20T10:08:45;100654.91;;;11.06;60.58
33189;BME280;52601;53.070;10.600;2022-11-20T10:15:38;100643.50;;;13.68;57.00
33189;BME280;52601;53.070;10.600;2022-11-20T10:24:44;100646.66;;;15.33;50.22
33189;BME280;52601;53.070;10.600;2022-11-20T10:27:56;100643.91;;;12.88;52.34
33189;BME280;52601;53.070;10.600;2022-11-20T10:30:55;100657.34;;;9.48;60.74
33189;BME280;52601;53.070;10.600;2022-11-20T10:33:44;100654.19;;;7.71;70.47
33189;BME280;52601;53.070;10.600;2022-11-20T10:37:06;100653.97;;;6.82;73.57
33189;BME280;52601;53.070;10.600;2022-11-20T10:43:28;100653.75;;;6.62;79.08
33189;BME280;52601;53.070;10.600;2022-11-20T10:46:20;100638.00;;;7.39;79.24
33189;BME280;52601;53.070;10.600;2022-11-20T10:49:17;100631.16;;;7.36;75.11
33189;BME280;52601;53.070;10.600;2022-11-20T10:52:32;100635.84;;;7.27;76.75
33189;BME280;52601;53.070;10.600;2022-11-20T10:55:43;100641.41;;;6.93;77.67
33189;BME280;52601;53.070;10.600;2022-11-20T10:59:04;100630.69;;;7.25;77.51
33189;BME280;52601;53.070;10.600;2022-11-20T11:01:56;100618.75;;;7.43;77.07
33189;BME280;52601;53.070;10.600;2022-11-20T11:04:52;100627.59;;;8.07;73.26
33189;BME280;52601;53.070;10.600;2022-11-20T11:07:39;100615.53;;;7.58;76.17
33189;BME280;52601;53.070;10.600;2022-11-20T11:10:45;100608.88;;;9.77;69.61
33189;BME280;52601;53.070;10.600;2022-11-20T11:16:00;100604.16;;;10.56;64.67
33189;BME280;52601;53.070;10.600;2022-11-20T11:18:46;100613.69;;;11.08;62.58
33189;BME280;52601;53.070;10.600;2022-11-20T11:21:32;100606.84;;;11.39;60.90
33189;BME280;52601;53.070;10.600;2022-11-20T11:24:24;100611.22;;;11.22;59.13
33189;BME280;52601;53.070;10.600;2022-11-20T11:27:28;100603.84;;;12.40;60.20
33189;BME280;52601;53.070;10.600;2022-11-20T11:30:16;100604.94;;;14.74;51.98
33189;BME280;52601;53.070;10.600;2022-11-20T11:36:20;100600.00;;;18.74;45.34
33189;BME280;52601;53.070;10.600;2022-11-20T11:39:18;100601.81;;;16.05;46.37
33189;BME280;52601;53.070;10.600;2022-11-20T11:42:12;100598.81;;;17.38;45.90
33189;BME280;52601;53.070;10.600;2022-11-20T11:45:00;100597.00;;;18.68;43.73
33189;BME280;52601;53.070;10.600;2022-11-20T11:47:54;100591.97;;;16.31;46.69
33189;BME280;52601;53.070;10.600;2022-11-20T11:50:48;100602.31;;;17.93;44.36
33189;BME280;52601;53.070;10.600;2022-11-20T11:53:39;100583.09;;;19.47;42.28
33189;BME280;52601;53.070;10.600;2022-11-20T11:56:27;100594.13;;;17.74;42.69
33189;BME280;52601;53.070;10.600;2022-11-20T11:59:23;100585.22;;;17.53;44.16
33189;BME280;52601;53.070;10.600;2022-11-20T12:05:45;100601.88;;;18.63;42.98
33189;BME280;52601;53.070;10.600;2022-11-20T12:08:50;100582.78;;;17.83;44.39
33189;BME280;52601;53.070;10.600;2022-11-20T12:11:45;100584.13;;;16.06;46.09
33189;BME280;52601;53.070;10.600;2022-11-20T12:14:41;100581.72;;;17.53;44.84
33189;BME280;52601;53.070;10.600;2022-11-20T12:17:28;100569.16;;;18.20;43.30
33189;BME280;52601;53.070;10.600;2022-11-20T12:20:14;100561.28;;;19.23;43.99
33189;BME280;52601;53.070;10.600;2022-11-20T12:26:50;100552.66;;;20.19;41.91
33189;BME280;52601;53.070;10.600;2022-11-20T12:29:44;100566.75;;;17.74;42.03
33189;BME280;52601;53.070;10.600;2022-11-20T12:33:07;100564.56;;;15.85;44.87
33189;BME280;52601;53.070;10.600;2022-11-20T12:36:19;100577.09;;;12.91;49.00
33189;BME280;52601;53.070;10.600;2022-11-20T12:39:31;100574.44;;;10.21;57.52
33189;BME280;52601;53.070;10.600;2022-11-20T12:42:28;100578.22;;;9.97;60.19
33189;BME280;52601;53.070;10.600;2022-11-20T12:45:50;100574.31;;;10.06;61.81
33189;BME280;52601;53.070;10.600;2022-11-20T12:55:33;100580.78;;;9.24;65.26
33189;BME280;52601;53.070;10.600;2022-11-20T13:01:27;100569.34;;;14.27;53.92
33189;BME280;52601;53.070;10.600;2022-11-20T13:04:55;100552.13;;;16.91;45.70
33189;BME280;52601;53.070;10.600;2022-11-20T13:07:37;100562.81;;;15.60;46.55
33189;BME280;52601;53.070;10.600;2022-11-20T13:11:03;100554.72;;;16.69;46.87
33189;BME280;52601;53.070;10.600;2022-11-20T13:13:50;100552.41;;;17.76;44.64
33189;BME280;52601;53.070;10.600;2022-11-20T13:16:50;100549.50;;;17.35;42.98
33189;BME280;52601;53.070;10.600;2022-11-20T13:19:38;100546.13;;;15.47;45.75
33189;BME280;52601;53.070;10.600;2022-11-20T13:22:31;100545.31;;;16.06;46.12
33189;BME280;52601;53.070;10.600;2022-11-20T13:25:34;100540.91;;;16.18;44.43
33189;BME280;52601;53.070;10.600;2022-11-20T13:31:42;100538.59;;;15.90;45.33
33189;BME280;52601;53.070;10.600;2022-11-20T13:34:29;100548.16;;;13.88;48.12
33189;BME280;52601;53.070;10.600;2022-11-20T13:37:34;100541.22;;;12.46;51.77
33189;BME280;52601;53.070;10.600;2022-11-20T13:40:22;100543.22;;;11.66;54.41
33189;BME280;52601;53.070;10.600;2022-11-20T13:43:14;100551.56;;;8.56;61.56
33189;BME280;52601;53.070;10.600;2022-11-20T13:46:05;100532.91;;;7.37;66.77
33189;BME280;52601;53.070;10.600;2022-11-20T13:48:52;100547.63;;;6.91;70.63
33189;BME280;52601;53.070;10.600;2022-11-20T13:51:48;100549.88;;;5.73;74.29
33189;BME280;52601;53.070;10.600;2022-11-20T14:01:00;100545.66;;;5.12;79.51
33189;BME280;52601;53.070;10.600;2022-11-20T14:03:47;100535.44;;;4.75;83.27
33189;BME280;52601;53.070;10.600;2022-11-20T14:06:53;100534.25;;;5.17;82.67
33189;BME280;52601;53.070;10.600;2022-11-20T14:09:52;100540.44;;;5.43;81.49
33189;BME280;52601;53.070;10.600;2022-11-20T14:12:39;100534.44;;;5.41;79.49
33189;BME280;52601;53.070;10.600;2022-11-20T14:15:26;100541.38;;;5.40;80.14
33189;BME280;52601;53.070;10.600;2022-11-20T14:18:15;100534.78;;;5.29;81.01
33189;BME280;52601;53.070;10.600;2022-11-20T14:21:01;100533.00;;;5.31;81.68
33189;BME280;52601;53.070;10.600;2022-11-20T14:23:52;100529.31;;;5.08;81.23
33189;BME280;52601;53.070;10.600;2022-11-20T14:26:42;100532.97;;;5.01;81.77
33189;BME280;52601;53.070;10.600;2022-11-20T14:29:35;100526.84;;;5.04;82.17
33189;BME280;52601;53.070;10.600;2022-11-20T14:32:27;100528.44;;;4.79;82.17
33189;BME280;52601;53.070;10.600;2022-11-20T14:35:24;100528.78;;;4.67;84.37
33189;BME280;52601;53.070;10.600;2022-11-20T14:38:13;100525.44;;;4.62;84.63
33189;BME280;52601;53.070;10.600;2022-11-20T14:41:07;100530.34;;;4.40;86.96
33189;BME280;52601;53.070;10.600;2022-11-20T14:43:56;100522.06;;;4.26;87.58
33189;BME280;52601;53.070;10.600;2022-11-20T14:46:44;100532.91;;;4.42;88.05
33189;BME280;52601;53.070;10.600;2022-11-20T14:49:31;100526.50;;;4.22;89.47
33189;BME280;52601;53.070;10.600;2022-11-20T14:52:20;100527.47;;;4.18;89.76
33189;BME280;52601;53.070;10.600;2022-11-20T14:55:07;100529.47;;;4.07;89.42
33189;BME280;52601;53.070;10.600;2022-11-20T14:57:56;100524.84;;;3.85;88.84
33189;BME280;52601;53.070;10.600;2022-11-20T15:00:56;100523.50;;;3.69;90.55
33189;BME280;52601;53.070;10.600;2022-11-20T15:03:42;100512.22;;;3.71;90.03
33189;BME280;52601;53.070;10.600;2022-11-20T15:06:28;100518.41;;;3.64;91.59
33189;BME280;52601;53.070;10.600;2022-11-20T15:09:15;100523.22;;;3.42;92.07
33189;BME280;52601;53.070;10.600;2022-11-20T15:12:02;100515.13;;;3.58;92.15
33189;BME280;52601;53.070;10.600;2022-11-20T15:14:48;100521.47;;;3.44;92.50
33189;BME280;52601;53.070;10.600;2022-11-20T15:17:37;100512.19;;;3.34;92.64
33189;BME280;52601;53.070;10.600;2022-11-20T15:20:30;100523.06;;;3.50;92.54
33189;BME280;52601;53.070;10.600;2022-11-20T15:23:18;100518.19;;;3.38;94.18
33189;BME280;52601;53.070;10.600;2022-11-20T15:26:05;100507.81;;;3.38;93.81
33189;BME280;52601;53.070;10.600;2022-11-20T15:28:53;100510.75;;;3.21;94.14
33189;BME280;52601;53.070;10.600;2022-11-20T15:31:40;100508.31;;;3.15;93.89